Time;durP1;ratioP1;P1;durP2;ratioP2;P2;SDS_P1;SDS_P2;PMS_P1;PMS_P2;Temp;Humidity;BMP_temperature;BMP_pressure;BME280_temperature;BME280_humidity;BME280_pressure;Samples;Min_cycle;Max_cycle;Signal;HPM_P1;HPM_P2
2022/04/07 00:03:28;;;;;;;;;;;;;;;;;;;;;
2022/04/07 00:07:02;;;;;;;;;;;;;;;;;;;;;
2022/04/07 00:10:22;;;;;;;;;;;;;;;;;;;;;
2022/04/07 00:21:12;;;;;;;5.32;1.38;;;9.50;99.90;;;;;;4876215;29;20051;-83
2022/04/07 00:24:31;;;;;;;2.72;1.60;;;9.40;99.90;;;;;;4877859;29;20080;-83
2022/04/07 00:27:59;;;;;;;4.35;1.35;;;9.40;99.90;;;;;;4878379;29;20055;-84
2022/04/07 00:31:17;;;;;;;7.80;1.55;;;9.90;99.90;;;;;;4857622;29;20065;-84
2022/04/07 00:34:47;;;;;;;;;;;;;;;;;;;;;
2022/04/07 00:38:08;;;;;;;4.82;0.80;;;9.30;99.90;;;;;;4873416;29;20052;-84
2022/04/07 00:48:49;;;;;;;8.30;1.08;;;9.20;99.90;;;;;;4861278;29;20145;-84
2022/04/07 00:51:53;;;;;;;5.22;1.13;;;9.20;99.90;;;;;;4839215;29;20076;-85
2022/04/07 00:55:11;;;;;;;5.53;0.63;;;9.20;99.90;;;;;;4873390;29;20475;-83
2022/04/07 00:58:36;;;;;;;;;;;;;;;;;;;;;
2022/04/07 01:02:03;;;;;;;;;;;;;;;;;;;;;
2022/04/07 01:05:20;;;;;;;;;;;;;;;;;;;;;
2022/04/07 01:12:19;;;;;;;6.47;1.27;;;9.30;99.90;;;;;;4872533;29;20056;-85
2022/04/07 01:15:42;;;;;;;;;;;;;;;;;;;;;
2022/04/07 01:19:03;;;;;;;9.40;1.30;;;9.30;99.90;;;;;;4877730;29;20507;-85
2022/04/07 01:22:18;;;;;;;7.57;1.20;;;9.90;99.90;;;;;;4873055;29;20060;-84
2022/04/07 01:25:38;;;;;;;8.20;1.38;;;9.20;99.90;;;;;;4881696;29;20498;-84
2022/04/07 01:29:02;;;;;;;;;;;;;;;;;;;;;
2022/04/07 01:39:32;;;;;;;11.70;1.35;;;9.00;99.90;;;;;;4875894;29;20053;-84
2022/04/07 01:42:49;;;;;;;10.13;1.08;;;9.00;99.90;;;;;;4848738;29;20528;-84
2022/04/07 01:46:02;;;;;;;5.72;0.98;;;9.10;99.90;;;;;;4878353;29;20172;-84
2022/04/07 01:49:24;;;;;;;;;;;;;;;;;;;;;
2022/04/07 01:52:56;;;;;;;;;;;;;;;;;;;;;
2022/04/07 01:56:19;;;;;;;6.40;0.90;;;9.30;99.90;;;;;;4860960;29;20133;-85
2022/04/07 01:59:24;;;;;;;6.00;1.42;;;9.00;99.90;;;;;;4841061;29;20479;-84
2022/04/07 02:02:30;;;;;;;8.70;1.77;;;9.00;99.90;;;;;;4842156;29;20057;-84
2022/04/07 02:05:59;;;;;;;11.88;1.60;;;8.70;99.90;;;;;;4875837;29;20041;-85
2022/04/07 02:09:38;;;;;;;;;;;;;;;;;;;;;
2022/04/07 02:13:04;;;;;;;;;;;;;;;;;;;;;
2022/04/07 02:16:29;;;;;;;;;;;;;;;;;;;;;
2022/04/07 02:19:34;;;;;;;;;;;9.00;99.90;;;;;;4875752;29;20391;-85
2022/04/07 02:23:02;;;;;;;17.35;2.15;;;8.40;99.90;;;;;;4874290;29;19924;-84
2022/04/07 02:26:38;;;;;;;;;;;;;;;;;;;;;
2022/04/07 02:29:57;;;;;;;;;;;;;;;;;;;;;
2022/04/07 02:33:16;;;;;;;;;;;;;;;;;;;;;
2022/04/07 02:47:41;;;;;;;13.80;1.52;;;8.40;99.90;;;;;;4878136;29;20394;-84
2022/04/07 02:51:06;;;;;;;;;;;;;;;;;;;;;
2022/04/07 02:54:26;;;;;;;;;;;;;;;;;;;;;
2022/04/07 02:58:04;;;;;;;;;;;;;;;;;;;;;
2022/04/07 03:01:24;;;;;;;;;;;;;;;;;;;;;
2022/04/07 03:04:54;;;;;;;;;;;;;;;;;;;;;
2022/04/07 03:08:36;;;;;;;;;;;;;;;;;;;;;
2022/04/07 03:11:50;;;;;;;;;;;;;;;;;;;;;
2022/04/07 03:15:01;;;;;;;11.98;2.13;;;9.20;99.90;;;;;;4873481;29;20132;-84
2022/04/07 03:18:02;;;;;;;11.77;1.88;;;9.10;99.90;;;;;;4874143;29;20502;-85
2022/04/07 03:21:00;;;;;;;13.57;2.22;;;9.10;99.90;;;;;;4846528;29;20049;-85
2022/04/07 03:24:19;;;;;;;14.45;1.80;;;9.10;99.90;;;;;;4878612;29;20071;-84
2022/04/07 03:27:45;;;;;;;11.82;2.17;;;9.10;99.90;;;;;;4875935;29;20550;-84
2022/04/07 03:31:16;;;;;;;11.95;2.95;;;9.10;99.90;;;;;;4879102;29;20132;-84
2022/04/07 03:34:15;;;;;;;;;;;9.10;99.90;;;;;;4864954;29;20057;-85
2022/04/07 03:37:28;;;;;;;8.50;2.03;;;9.20;99.90;;;;;;4874452;29;19924;-84
2022/04/07 03:41:09;;;;;;;7.13;1.70;;;9.10;99.90;;;;;;4876151;29;20045;-84
2022/04/07 03:44:11;;;;;;;;;;;8.20;99.90;;;;;;4839874;29;20463;-84
2022/04/07 03:47:11;;;;;;;9.30;2.22;;;9.20;99.90;;;;;;4862206;29;20006;-83
2022/04/07 03:50:23;;;;;;;;;;;;;;;;;;;;;
2022/04/07 03:57:07;;;;;;;8.57;1.85;;;9.20;99.90;;;;;;4878296;29;20442;-83
2022/04/07 04:00:27;;;;;;;;;;;;;;;;;;;;;
2022/04/07 04:03:41;;;;;;;13.32;1.60;;;9.10;99.90;;;;;;4874613;29;20145;-84
2022/04/07 04:07:08;;;;;;;;;;;;;;;;;;;;;
2022/04/07 04:10:16;;;;;;;;;;;;;;;;;;;;;
2022/04/07 04:13:33;;;;;;;;;;;;;;;;;;;;;
2022/04/07 04:17:10;;;;;;;;;;;;;;;;;;;;;
2022/04/07 04:20:44;;;;;;;16.35;2.50;;;9.10;99.90;;;;;;4818448;29;20500;-84
2022/04/07 04:23:56;;;;;;;;;;;;;;;;;;;;;
2022/04/07 04:27:24;;;;;;;;;;;;;;;;;;;;;
2022/04/07 04:30:38;;;;;;;;;;;;;;;;;;;;;
2022/04/07 04:33:52;;;;;;;12.77;2.10;;;8.90;99.90;;;;;;4817386;29;20110;-84
2022/04/07 04:40:36;;;;;;;11.52;1.90;;;9.00;99.90;;;;;;4799695;29;20050;-84
2022/04/07 04:43:54;;;;;;;;;;;;;;;;;;;;;
2022/04/07 04:47:18;;;;;;;;;;;;;;;;;;;;;
2022/04/07 04:50:51;;;;;;;17.50;2.70;;;8.90;99.90;;;;;;4820799;29;20055;-85
2022/04/07 04:54:18;;;;;;;;;;;;;;;;;;;;;
2022/04/07 05:08:50;;;;;;;24.92;2.40;;;8.20;99.90;;;;;;4881717;29;20036;-84
2022/04/07 05:12:12;;;;;;;13.95;2.25;;;8.90;99.90;;;;;;4878495;29;20061;-85
2022/04/07 05:15:40;;;;;;;;;;;;;;;;;;;;;
2022/04/07 05:18:56;;;;;;;;;;;;;;;;;;;;;
2022/04/07 05:21:59;;;;;;;13.27;2.30;;;9.20;99.90;;;;;;4825072;29;20061;-85
2022/04/07 05:25:24;;;;;;;;;;;;;;;;;;;;;
2022/04/07 05:29:16;;;;;;;;;;;;;;;;;;;;;
2022/04/07 05:32:18;;;;;;;14.35;1.95;;;8.80;99.90;;;;;;4879230;29;20471;-84
2022/04/07 05:35:43;;;;;;;6.03;1.53;;;8.70;99.90;;;;;;4879942;29;20053;-85
2022/04/07 05:39:14;;;;;;;;;;;;;;;;;;;;;
2022/04/07 05:42:36;;;;;;;7.32;1.15;;;8.20;99.90;;;;;;4878886;29;20041;-85
2022/04/07 05:45:50;;;;;;;5.93;0.90;;;8.50;99.90;;;;;;4880234;29;20068;-85
2022/04/07 05:48:50;;;;;;;3.30;0.82;;;7.80;99.90;;;;;;4875560;29;20083;-85
2022/04/07 05:55:59;;;;;;;3.55;0.55;;;7.30;99.90;;;;;;4879568;29;20064;-85
2022/04/07 05:59:14;;;;;;;5.50;0.95;;;7.40;99.90;;;;;;4876690;29;20048;-85
2022/04/07 06:02:09;;;;;;;9.02;0.80;;;7.30;99.90;;;;;;4858747;29;20125;-85
2022/04/07 06:05:26;;;;;;;7.13;0.70;;;8.00;99.90;;;;;;4875500;29;20049;-84
2022/04/07 06:08:54;;;;;;;1.30;0.30;;;7.30;99.90;;;;;;4879023;29;20498;-85
2022/04/07 06:12:16;;;;;;;4.40;0.50;;;7.10;99.90;;;;;;4876270;29;20574;-84
2022/04/07 06:15:47;;;;;;;1.55;0.38;;;7.10;99.90;;;;;;4880510;29;20052;-85
2022/04/07 06:18:37;;;;;;;1.88;0.40;;;6.90;99.90;;;;;;4879499;29;20075;-85
2022/04/07 06:21:49;;;;;;;;;;;;;;;;;;;;;
2022/04/07 06:24:48;;;;;;;0.45;0.30;;;6.60;99.90;;;;;;4879921;29;20510;-85
2022/04/07 06:28:04;;;;;;;;;;;;;;;;;;;;;
2022/04/07 06:31:21;;;;;;;3.92;0.50;;;6.80;99.90;;;;;;4875947;29;20457;-85
2022/04/07 06:34:28;;;;;;;;;;;;;;;;;;;;;
2022/04/07 06:37:34;;;;;;;5.35;0.98;;;6.30;99.90;;;;;;4862332;29;20080;-85
2022/04/07 06:40:33;;;;;;;2.20;0.52;;;6.30;99.90;;;;;;4845051;29;20057;-83
2022/04/07 06:44:09;;;;;;;3.40;0.35;;;6.30;99.90;;;;;;4875137;29;20063;-85
2022/04/07 06:47:14;;;;;;;1.08;0.30;;;6.40;99.90;;;;;;4765480;30;20520;-83
2022/04/07 06:50:25;;;;;;;2.20;0.50;;;6.30;99.90;;;;;;4786828;30;20059;-85
2022/04/07 06:53:12;;;;;;;2.08;0.40;;;6.30;99.90;;;;;;4786633;30;20043;-83
2022/04/07 06:55:47;;;;;;;2.75;0.38;;;6.30;99.90;;;;;;4787523;30;20517;-82
2022/04/07 06:58:33;;;;;;;0.85;0.30;;;6.30;99.90;;;;;;4785167;30;20047;-84
2022/04/07 07:01:19;;;;;;;1.92;0.35;;;6.20;99.90;;;;;;4791203;29;20047;-83
2022/04/07 07:04:33;;;;;;;3.40;0.47;;;6.30;99.90;;;;;;4763255;30;20060;-83
2022/04/07 07:07:33;;;;;;;0.68;0.40;;;6.20;99.90;;;;;;4786160;30;20096;-83
2022/04/07 07:10:31;;;;;;;2.97;0.35;;;6.30;99.90;;;;;;4784728;30;20165;-83
2022/04/07 07:13:36;;;;;;;1.65;0.40;;;6.20;99.90;;;;;;4783404;30;20066;-83
2022/04/07 07:16:33;;;;;;;3.05;0.57;;;6.30;99.90;;;;;;4770896;30;20051;-82
2022/04/07 07:19:39;;;;;;;5.53;1.15;;;5.70;99.90;;;;;;4786220;29;20281;-82
2022/04/07 07:22:19;;;;;;;2.00;0.50;;;6.40;99.90;;;;;;4776310;29;20051;-82
2022/04/07 07:25:10;;;;;;;1.95;0.45;;;6.30;99.90;;;;;;4878243;29;20057;-82
2022/04/07 07:28:21;;;;;;;1.75;0.73;;;6.40;99.90;;;;;;4879510;29;20044;-82
2022/04/07 07:31:20;;;;;;;3.22;0.32;;;6.40;99.90;;;;;;4856969;29;20460;-82
2022/04/07 07:34:22;;;;;;;1.25;0.50;;;6.40;99.90;;;;;;4862104;29;20059;-83
2022/04/07 07:40:36;;;;;;;1.35;0.32;;;6.80;99.90;;;;;;4872534;29;20172;-82
2022/04/07 07:43:25;;;;;;;6.03;0.35;;;6.40;99.90;;;;;;4870761;29;20038;-83
2022/04/07 07:46:34;;;;;;;2.60;0.40;;;6.40;99.90;;;;;;4878748;29;20084;-83
2022/04/07 07:49:35;;;;;;;1.65;0.30;;;6.80;99.90;;;;;;4874122;29;20080;-83
2022/04/07 07:52:34;;;;;;;4.50;0.40;;;6.40;99.90;;;;;;4878901;29;20041;-81
2022/04/07 07:55:37;;;;;;;1.08;0.40;;;6.40;99.90;;;;;;4869757;29;20132;-81
2022/04/07 08:02:17;;;;;;;1.65;0.28;;;6.50;99.90;;;;;;4878264;29;20558;-83
2022/04/07 08:05:07;;;;;;;1.17;0.30;;;6.50;99.90;;;;;;4860572;29;20061;-84
2022/04/07 08:08:12;;;;;;;;;;;;;;;;;;;;;
2022/04/07 08:11:11;;;;;;;;;;;;;;;;;;;;;
2022/04/07 08:14:13;;;;;;;2.05;0.30;;;7.00;99.90;;;;;;4845356;29;20101;-83
2022/04/07 08:24:20;;;;;;;2.92;0.28;;;7.70;99.90;;;;;;4877064;29;20089;-85
2022/04/07 08:27:42;;;;;;;0.95;0.20;;;8.10;99.90;;;;;;4878658;29;20059;-84
2022/04/07 08:38:18;;;;;;;2.72;0.43;;;8.50;99.90;;;;;;4877828;29;20049;-87
2022/04/07 09:18:07;;;;;;;3.42;0.80;;;10.30;99.90;;;;;;4878640;29;20160;-84
2022/04/07 09:21:38;;;;;;;;;;;;;;;;;;;;;
2022/04/07 09:25:17;;;;;;;;;;;;;;;;;;;;;
2022/04/07 09:28:53;;;;;;;4.22;1.08;;;10.50;99.90;;;;;;4803271;29;20540;-86
2022/04/07 09:32:05;;;;;;;4.57;0.40;;;11.00;99.90;;;;;;4793252;29;20150;-84
2022/04/07 09:35:21;;;;;;;;;;;;;;;;;;;;;
2022/04/07 09:45:57;;;;;;;8.18;0.85;;;10.70;99.90;;;;;;4718869;30;20151;-85
2022/04/07 09:49:09;;;;;;;4.25;0.50;;;10.60;99.90;;;;;;4734693;30;20106;-85
2022/04/07 09:52:25;;;;;;;;;;;;;;;;;;;;;
2022/04/07 09:55:44;;;;;;;;;;;;;;;;;;;;;
2022/04/07 09:59:11;;;;;;;6.53;0.75;;;11.00;99.90;;;;;;4635282;31;20063;-83
2022/04/07 10:20:43;;;;;;;;;;;;;;;;;;;;;
2022/04/07 10:23:46;;;;;;;4.17;0.73;;;10.70;99.90;;;;;;4752047;30;20135;-85
2022/04/07 10:27:29;;;;;;;;;;;;;;;;;;;;;
2022/04/07 10:30:49;;;;;;;4.35;0.65;;;10.90;99.90;;;;;;4769332;30;20050;-86
2022/04/07 10:33:46;;;;;;;3.30;0.50;;;11.00;99.90;;;;;;4774999;30;20086;-85
2022/04/07 10:37:06;;;;;;;3.05;0.50;;;10.80;99.90;;;;;;4777136;29;20051;-83
2022/04/07 10:44:12;;;;;;;4.30;0.77;;;9.80;99.90;;;;;;4784785;29;20479;-84
2022/04/07 10:47:20;;;;;;;5.60;0.80;;;9.30;99.90;;;;;;4742530;30;20578;-84
2022/04/07 10:50:12;;;;;;;6.00;0.55;;;9.70;99.90;;;;;;4771937;29;20429;-85
2022/04/07 10:53:26;;;;;;;6.03;0.68;;;9.40;99.90;;;;;;4784837;29;20087;-84
2022/04/07 10:56:48;;;;;;;5.28;0.73;;;9.40;99.90;;;;;;4788364;29;20055;-88
2022/04/07 11:00:19;;;;;;;7.03;0.90;;;9.30;99.90;;;;;;4841981;29;20041;-85
2022/04/07 11:03:45;;;;;;;3.13;0.60;;;9.60;99.90;;;;;;4854802;29;20061;-85
2022/04/07 11:06:59;;;;;;;8.48;0.60;;;9.80;99.90;;;;;;4845046;29;20051;-84
2022/04/07 11:10:19;;;;;;;5.95;0.77;;;10.00;99.90;;;;;;4859507;29;20053;-84
2022/04/07 11:13:50;;;;;;;;;;;;;;;;;;;;;
2022/04/07 11:17:04;;;;;;;12.13;1.30;;;10.10;99.90;;;;;;4857833;29;20056;-84
2022/04/07 11:20:28;;;;;;;4.90;0.70;;;9.90;99.90;;;;;;4842515;29;20077;-84
2022/04/07 11:23:22;;;;;;;4.10;0.70;;;10.00;99.90;;;;;;4827765;29;20050;-86
2022/04/07 11:26:35;;;;;;;3.70;0.73;;;10.10;99.90;;;;;;4852581;29;20103;-84
2022/04/07 11:30:26;;;;;;;7.63;0.90;;;10.40;99.90;;;;;;4871483;29;20180;-85
2022/04/07 11:33:52;;;;;;;3.70;0.82;;;10.50;99.90;;;;;;4786632;29;20055;-84
2022/04/07 11:37:19;;;;;;;;;;;;;;;;;;;;;
2022/04/07 11:40:29;;;;;;;5.30;1.00;;;10.70;99.90;;;;;;4802914;29;20055;-85
2022/04/07 11:43:49;;;;;;;5.80;1.67;;;10.70;99.90;;;;;;4786283;29;20047;-85
2022/04/07 11:46:47;;;;;;;4.68;1.08;;;10.70;99.90;;;;;;4779951;30;20085;-85
2022/04/07 11:50:05;;;;;;;4.85;1.00;;;10.60;99.90;;;;;;4803515;29;20058;-85
2022/04/07 11:53:18;;;;;;;10.20;1.25;;;11.00;99.90;;;;;;4776097;29;20051;-85
2022/04/07 11:56:26;;;;;;;8.20;1.10;;;11.00;99.90;;;;;;4852551;24;20076;-86
2022/04/07 11:59:29;;;;;;;9.25;0.82;;;10.60;99.90;;;;;;4871209;29;20051;-84
2022/04/07 12:10:20;;;;;;;7.93;0.70;;;10.70;99.90;;;;;;4877518;29;20040;-84
2022/04/07 12:13:21;;;;;;;6.03;0.47;;;10.50;99.90;;;;;;4837808;29;20053;-83
2022/04/07 12:16:30;;;;;;;4.88;0.85;;;10.60;99.90;;;;;;4837284;29;20136;-85
2022/04/07 12:19:06;;;;;;;7.82;0.90;;;10.20;99.90;;;;;;4852092;29;20113;-85
2022/04/07 12:22:33;;;;;;;3.03;0.70;;;10.20;99.90;;;;;;4841878;29;20103;-85
2022/04/07 12:25:25;;;;;;;6.45;0.80;;;10.20;99.90;;;;;;4770736;30;20055;-84
2022/04/07 12:28:38;;;;;;;6.35;0.80;;;10.20;99.90;;;;;;4769649;30;20062;-84
2022/04/07 12:39:03;;;;;;;10.10;0.98;;;8.90;99.90;;;;;;4731977;30;20458;-85
2022/04/07 12:41:48;;;;;;;3.38;0.50;;;9.00;99.90;;;;;;4740198;30;20131;-84
2022/04/07 12:44:49;;;;;;;;;;;;;;;;;;;;;
2022/04/07 12:47:30;;;;;;;1.98;0.47;;;9.10;99.90;;;;;;4738209;30;20060;-85
2022/04/07 12:50:30;;;;;;;2.75;0.50;;;9.40;99.90;;;;;;4733617;30;20063;-84
2022/04/07 12:53:38;;;;;;;6.88;1.25;;;9.70;99.90;;;;;;4733506;30;20063;-85
2022/04/07 12:56:38;;;;;;;8.88;0.80;;;10.00;99.90;;;;;;4729868;30;20183;-84
2022/04/07 12:59:37;;;;;;;6.55;0.93;;;10.00;99.90;;;;;;4787610;29;20137;-84
2022/04/07 13:02:35;;;;;;;3.95;0.70;;;10.00;99.90;;;;;;4826093;29;20598;-85
2022/04/07 13:05:08;;;;;;;9.30;1.10;;;9.80;99.90;;;;;;4858183;29;20045;-85
2022/04/07 13:07:35;;;;;;;7.32;1.00;;;9.80;99.90;;;;;;4859470;29;20110;-84
2022/04/07 13:10:09;;;;;;;6.53;0.60;;;9.70;99.90;;;;;;4858006;29;20050;-85
2022/04/07 13:12:39;;;;;;;7.03;1.00;;;9.90;99.90;;;;;;4858388;29;20086;-85
2022/04/07 13:15:09;;;;;;;5.13;1.10;;;9.90;99.90;;;;;;4857884;29;20045;-85
2022/04/07 13:17:44;;;;;;;10.40;1.02;;;10.00;99.90;;;;;;4861994;29;20045;-85
2022/04/07 13:20:17;;;;;;;2.00;0.38;;;9.90;99.90;;;;;;4861755;29;20069;-86
2022/04/07 13:22:51;;;;;;;1.17;0.20;;;8.70;99.90;;;;;;4860355;29;20092;-86
2022/04/07 13:25:24;;;;;;;1.02;0.50;;;9.00;99.90;;;;;;4846728;29;20046;-85
2022/04/07 13:28:04;;;;;;;0.93;0.40;;;8.60;99.90;;;;;;4861873;29;20071;-85
2022/04/07 13:30:56;;;;;;;0.65;0.30;;;8.70;99.90;;;;;;4856315;29;20081;-85
2022/04/07 13:33:27;;;;;;;2.08;0.43;;;8.20;99.90;;;;;;4861134;29;20175;-84
2022/04/07 13:36:06;;;;;;;1.65;0.22;;;8.00;99.90;;;;;;4861753;29;20072;-84
2022/04/07 13:38:40;;;;;;;0.75;0.30;;;8.10;99.90;;;;;;4861388;29;20065;-85
2022/04/07 13:41:16;;;;;;;4.30;0.82;;;7.90;99.90;;;;;;4862299;29;20041;-85
2022/04/07 13:43:46;;;;;;;2.90;1.13;;;8.70;99.90;;;;;;4861214;29;20516;-84
2022/04/07 13:46:20;;;;;;;3.13;0.60;;;7.90;99.90;;;;;;4861764;29;20034;-83
2022/04/07 13:48:49;;;;;;;;;;;7.90;99.90;;;;;;4861221;29;20160;-85
2022/04/07 13:55:09;;;;;;;6.00;0.70;;;8.10;99.90;;;;;;4855331;29;20060;-83
2022/04/07 13:57:51;;;;;;;5.38;0.50;;;8.00;99.90;;;;;;4863283;29;20053;-86
2022/04/07 14:00:23;;;;;;;2.22;0.38;;;8.50;99.90;;;;;;4873345;29;20040;-83
2022/04/07 14:03:05;;;;;;;4.70;0.50;;;8.20;99.90;;;;;;4863797;29;20057;-84
2022/04/07 14:05:48;;;;;;;2.78;0.52;;;8.60;99.90;;;;;;4863992;29;20053;-84
2022/04/07 14:08:24;;;;;;;2.08;0.50;;;8.80;99.90;;;;;;4874512;29;20490;-85
2022/04/07 14:11:09;;;;;;;3.28;0.45;;;8.80;99.90;;;;;;4881041;29;20060;-84
2022/04/07 14:17:38;;;;;;;4.57;0.47;;;9.10;99.90;;;;;;4862525;29;20048;-84
2022/04/07 14:20:21;;;;;;;4.35;0.57;;;9.70;99.90;;;;;;4862681;29;20057;-84
2022/04/07 14:23:02;;;;;;;2.58;0.50;;;9.90;99.90;;;;;;4863226;29;20060;-84
2022/04/07 14:25:45;;;;;;;5.38;1.35;;;10.30;99.90;;;;;;4874329;29;20053;-84
2022/04/07 14:28:31;;;;;;;4.43;0.60;;;10.60;99.90;;;;;;4861091;29;20612;-83
2022/04/07 14:31:10;;;;;;;5.97;0.93;;;10.30;99.90;;;;;;4864337;29;20534;-84
2022/04/07 14:33:52;;;;;;;6.85;0.73;;;10.20;99.90;;;;;;4862759;29;20410;-84
2022/04/07 14:36:22;;;;;;;6.30;0.70;;;9.90;99.90;;;;;;4862406;29;20101;-84
2022/04/07 14:39:02;;;;;;;3.25;0.60;;;9.50;99.90;;;;;;4873278;29;20708;-85
2022/04/07 14:41:46;;;;;;;5.68;0.73;;;9.20;99.90;;;;;;4876770;29;20052;-84
2022/04/07 14:44:20;;;;;;;6.78;0.70;;;9.20;99.90;;;;;;4862283;29;20065;-83
2022/04/07 14:46:55;;;;;;;3.25;1.10;;;9.10;99.90;;;;;;4857997;29;20550;-84
2022/04/07 14:49:49;;;;;;;8.73;0.90;;;8.30;99.90;;;;;;4864958;29;20065;-84
2022/04/07 14:52:21;;;;;;;7.13;1.02;;;9.10;99.90;;;;;;4880965;29;20053;-83
2022/04/07 14:58:17;;;;;;;10.00;1.23;;;9.10;99.90;;;;;;4879797;29;20219;-84
2022/04/07 15:00:52;;;;;;;7.40;0.70;;;9.10;99.90;;;;;;4863351;29;20048;-85
2022/04/07 15:03:33;;;;;;;2.33;0.30;;;9.20;99.90;;;;;;4864988;29;20032;-83
2022/04/07 15:06:03;;;;;;;3.90;0.85;;;9.30;99.90;;;;;;4862627;29;20044;-84
2022/04/07 15:08:40;;;;;;;3.85;0.70;;;9.40;99.90;;;;;;4862318;29;20087;-85
2022/04/07 15:11:17;;;;;;;5.07;0.73;;;9.50;99.90;;;;;;4879779;29;20474;-84
2022/04/07 15:13:45;;;;;;;4.73;0.70;;;10.00;99.90;;;;;;4862061;29;20053;-85
2022/04/07 15:16:15;;;;;;;5.75;0.60;;;9.50;99.90;;;;;;4861278;29;20293;-85
2022/04/07 15:18:51;;;;;;;3.85;0.55;;;9.70;99.90;;;;;;4862685;29;20146;-84
2022/04/07 15:21:21;;;;;;;6.90;1.23;;;9.60;99.90;;;;;;4861371;29;20059;-84
2022/04/07 15:23:56;;;;;;;6.05;0.73;;;9.80;99.90;;;;;;4879380;29;20037;-82
2022/04/07 15:26:37;;;;;;;7.30;1.48;;;9.50;99.90;;;;;;4872564;29;20056;-84
2022/04/07 15:29:46;;;;;;;;;;;;;;;;;;;;;
2022/04/07 15:32:56;;;;;;;;;;;;;;;;;;;;;
2022/04/07 15:39:08;;;;;;;6.55;1.85;;;9.00;99.90;;;;;;4824186;29;20052;-84
2022/04/07 15:42:04;;;;;;;6.43;1.88;;;9.60;99.90;;;;;;4813167;29;20115;-85
2022/04/07 15:45:03;;;;;;;12.00;1.00;;;9.40;99.90;;;;;;4826643;29;20175;-84
2022/04/07 15:48:02;;;;;;;5.03;0.68;;;9.60;99.90;;;;;;4800000;29;20061;-85
2022/04/07 15:51:05;;;;;;;20.38;2.55;;;9.30;99.90;;;;;;4813447;29;20042;-86
2022/04/07 15:54:03;;;;;;;6.13;0.93;;;9.40;99.90;;;;;;4829241;29;20058;-85
2022/04/07 15:57:03;;;;;;;11.68;1.48;;;9.40;99.90;;;;;;4811020;29;20046;-84
2022/04/07 16:00:14;;;;;;;;;;;;;;;;;;;;;
2022/04/07 16:03:31;;;;;;;4.15;0.75;;;10.00;99.90;;;;;;4870762;24;20057;-85
2022/04/07 16:06:29;;;;;;;4.25;0.73;;;9.30;99.90;;;;;;4878430;29;20045;-86
2022/04/07 16:09:50;;;;;;;5.00;0.68;;;9.80;99.90;;;;;;4853981;29;20113;-86
2022/04/07 16:12:57;;;;;;;6.72;1.90;;;9.00;99.90;;;;;;4861532;29;20542;-89
2022/04/07 16:15:48;;;;;;;4.28;0.50;;;9.20;99.90;;;;;;4856268;29;20132;-85
2022/04/07 16:19:26;;;;;;;;;;;;;;;;;;;;;
2022/04/07 16:22:33;;;;;;;3.72;0.75;;;9.10;99.90;;;;;;4798673;29;20054;-85
2022/04/07 16:25:21;;;;;;;7.57;1.92;;;8.90;99.90;;;;;;4785911;29;20063;-85
2022/04/07 16:28:13;;;;;;;;;;;;;;;;;;;;;
2022/04/07 16:31:14;;;;;;;;;;;;;;;;;;;;;
2022/04/07 16:34:28;;;;;;;1.63;0.50;;;9.00;99.90;;;;;;4802762;29;20612;-85
2022/04/07 16:37:35;;;;;;;7.80;0.77;;;9.00;99.90;;;;;;4787627;29;20043;-86
2022/04/07 16:44:34;;;;;;;;;;;;;;;;;;;;;
2022/04/07 16:47:33;;;;;;;5.47;1.02;;;9.00;99.90;;;;;;4779539;29;20416;-85
2022/04/07 16:50:19;;;;;;;4.78;0.70;;;9.10;99.90;;;;;;4802259;29;20089;-84
2022/04/07 16:53:10;;;;;;;4.20;0.68;;;8.90;99.90;;;;;;4790559;29;20050;-85
2022/04/07 16:56:21;;;;;;;5.00;1.23;;;8.80;99.90;;;;;;4790800;29;20047;-85
2022/04/07 16:59:08;;;;;;;4.43;0.75;;;9.20;99.90;;;;;;4865682;29;20116;-85
2022/04/07 17:05:46;;;;;;;;;;;;;;;;;;;;;
2022/04/07 17:08:58;;;;;;;;;;;;;;;;;;;;;
2022/04/07 17:19:17;;;;;;;4.18;0.60;;;8.70;99.90;;;;;;5005586;24;20072;-88
2022/04/07 17:31:37;;;;;;;4.80;0.88;;;8.70;99.90;;;;;;4880818;29;20113;-86
2022/04/07 17:34:57;;;;;;;5.25;1.20;;;8.60;99.90;;;;;;4879555;29;20059;-86
2022/04/07 17:42:27;;;;;;;5.53;0.70;;;8.30;99.90;;;;;;4809778;29;20086;-88
2022/04/07 17:52:49;;;;;;;6.90;0.70;;;8.30;99.90;;;;;;4909524;24;20069;-89
2022/04/07 17:55:37;;;;;;;5.95;1.73;;;8.40;99.90;;;;;;4863472;29;20056;-88
2022/04/07 17:58:39;;;;;;;3.75;0.70;;;8.40;99.90;;;;;;4863575;29;20386;-87
2022/04/07 18:01:36;;;;;;;4.88;1.60;;;8.40;99.90;;;;;;4876870;29;20410;-87
2022/04/07 18:04:51;;;;;;;4.57;0.70;;;8.40;99.90;;;;;;4876651;29;20073;-89
2022/04/07 18:08:03;;;;;;;;;;;;;;;;;;;;;
2022/04/07 18:15:03;;;;;;;5.93;0.63;;;8.20;99.90;;;;;;4880951;29;20052;-86
2022/04/07 18:18:04;;;;;;;6.38;0.75;;;8.10;99.90;;;;;;4874373;29;20045;-87
2022/04/07 18:20:57;;;;;;;2.50;0.40;;;8.00;99.90;;;;;;4874715;29;20064;-87
2022/04/07 18:23:58;;;;;;;8.05;0.70;;;8.00;99.90;;;;;;4864509;29;20029;-87
2022/04/07 18:27:05;;;;;;;3.57;0.57;;;8.10;99.90;;;;;;4873858;29;20045;-86
2022/04/07 18:29:43;;;;;;;4.78;0.80;;;8.10;99.90;;;;;;4843096;29;20060;-86
2022/04/07 18:32:09;;;;;;;9.63;1.02;;;8.00;99.90;;;;;;4859950;29;20077;-87
2022/04/07 18:34:38;;;;;;;5.90;0.70;;;7.90;99.90;;;;;;4863536;29;20100;-85
2022/04/07 18:37:07;;;;;;;2.78;0.80;;;8.00;99.90;;;;;;4879539;29;20041;-86
2022/04/07 18:39:37;;;;;;;4.13;0.70;;;7.70;99.90;;;;;;4880193;29;20048;-85
2022/04/07 18:42:07;;;;;;;9.43;1.00;;;7.80;99.90;;;;;;4880056;29;20120;-85
2022/04/07 18:44:38;;;;;;;9.15;1.02;;;7.80;99.90;;;;;;4872359;29;20049;-86
2022/04/07 18:47:07;;;;;;;5.22;1.13;;;7.70;99.90;;;;;;4863096;29;20583;-87
2022/04/07 18:49:38;;;;;;;8.52;0.82;;;7.70;99.90;;;;;;4880272;29;20502;-87
2022/04/07 18:52:09;;;;;;;4.70;1.08;;;7.60;99.90;;;;;;4862321;29;20112;-87
2022/04/07 18:54:43;;;;;;;4.55;1.02;;;7.50;99.90;;;;;;4880221;29;20057;-87
2022/04/07 18:57:15;;;;;;;4.95;0.80;;;7.50;99.90;;;;;;4880216;29;20041;-87
2022/04/07 18:59:56;;;;;;;3.03;0.63;;;7.50;99.90;;;;;;4856391;29;20069;-87
2022/04/07 19:02:24;;;;;;;9.68;1.48;;;7.40;99.90;;;;;;4879242;29;20494;-86
2022/04/07 19:05:17;;;;;;;6.88;0.85;;;7.30;99.90;;;;;;4863614;29;20067;-87
2022/04/07 19:07:59;;;;;;;5.68;0.80;;;7.70;99.90;;;;;;4871138;29;20422;-86
2022/04/07 19:10:47;;;;;;;9.13;1.17;;;6.90;99.90;;;;;;4877054;29;20486;-86
2022/04/07 19:13:16;;;;;;;9.73;1.10;;;7.60;99.90;;;;;;4862336;29;20041;-84
2022/04/07 19:16:08;;;;;;;7.13;1.02;;;7.30;99.90;;;;;;4862846;29;20037;-86
2022/04/07 19:18:36;;;;;;;9.48;0.90;;;7.20;99.90;;;;;;4829037;29;20424;-86
2022/04/07 19:21:05;;;;;;;10.10;1.30;;;7.30;99.90;;;;;;4862936;29;20041;-86
2022/04/07 19:23:42;;;;;;;13.73;1.40;;;7.20;99.90;;;;;;4879030;29;20499;-87
2022/04/07 19:26:27;;;;;;;12.23;1.30;;;7.30;99.90;;;;;;4878480;29;20075;-87
2022/04/07 19:29:15;;;;;;;15.80;1.40;;;7.30;99.90;;;;;;4857558;29;20513;-87
2022/04/07 19:31:54;;;;;;;;;;;7.30;99.90;;;;;;4863279;29;20049;-88
2022/04/07 19:34:40;;;;;;;6.47;0.73;;;7.50;99.90;;;;;;4863080;29;20345;-89
2022/04/07 19:37:13;;;;;;;;;;;7.30;99.90;;;;;;4871847;29;20109;-87
2022/04/07 19:40:25;;;;;;;9.70;0.60;;;7.30;99.90;;;;;;4853089;29;19963;-88
2022/04/07 19:43:40;;;;;;;5.10;0.73;;;7.40;99.90;;;;;;4875500;29;20049;-84
2022/04/07 19:46:54;;;;;;;;;;;;;;;;;;;;;
2022/04/07 19:50:22;;;;;;;;;;;;;;;;;;;;;
2022/04/07 19:53:53;;;;;;;;;;;;;;;;;;;;;
2022/04/07 20:01:12;;;;;;;;;;;;;;;;;;;;;
2022/04/07 20:04:46;;;;;;;;;;;;;;;;;;;;;
2022/04/07 20:08:14;;;;;;;;;;;;;;;;;;;;;
2022/04/07 20:11:46;;;;;;;7.32;1.00;;;7.00;99.90;;;;;;4877598;29;20135;-84
2022/04/07 20:14:31;;;;;;;;;;;;;;;;;;;;;
2022/04/07 20:17:55;;;;;;;8.82;1.02;;;6.90;99.90;;;;;;4878805;29;20041;-85
2022/04/07 20:20:32;;;;;;;7.13;0.77;;;7.10;99.90;;;;;;4860691;29;20052;-86
2022/04/07 20:23:13;;;;;;;5.68;0.70;;;7.10;99.90;;;;;;4876823;29;20052;-86
2022/04/07 20:25:46;;;;;;;9.52;1.05;;;7.00;99.90;;;;;;4877527;29;20045;-85
2022/04/07 20:28:47;;;;;;;6.90;0.70;;;7.40;99.90;;;;;;4877721;29;20507;-85
2022/04/07 20:31:30;;;;;;;17.10;2.92;;;6.40;99.90;;;;;;4861872;29;20045;-85
2022/04/07 20:41:57;;;;;;;3.40;0.43;;;7.00;99.90;;;;;;4878293;29;20097;-86
2022/04/07 20:45:12;;;;;;;;;;;;;;;;;;;;;
2022/04/07 20:48:27;;;;;;;;;;;;;;;;;;;;;
2022/04/07 20:51:25;;;;;;;5.78;0.85;;;6.90;99.90;;;;;;4852405;29;20123;-86
2022/04/07 20:57:43;;;;;;;5.05;1.13;;;7.30;99.90;;;;;;4877279;29;20072;-87
2022/04/07 21:00:54;;;;;;;;;;;;;;;;;;;;;
2022/04/07 21:04:18;;;;;;;;;;;;;;;;;;;;;
2022/04/07 21:07:12;;;;;;;5.90;0.65;;;6.80;99.90;;;;;;4855133;29;20591;-85
2022/04/07 21:10:35;;;;;;;4.45;0.60;;;6.80;99.90;;;;;;4860155;29;20124;-85
2022/04/07 21:14:04;;;;;;;5.13;0.93;;;6.70;99.90;;;;;;4875444;29;20048;-88
2022/04/07 21:17:17;;;;;;;10.95;1.20;;;6.70;99.90;;;;;;4859194;29;20432;-87
2022/04/07 21:24:16;;;;;;;3.28;0.63;;;6.90;99.90;;;;;;4877507;29;20408;-85
2022/04/07 21:27:19;;;;;;;4.18;0.50;;;7.30;99.90;;;;;;4877401;29;20467;-86
2022/04/07 21:30:32;;;;;;;;;;;;;;;;;;;;;
2022/04/07 21:33:20;;;;;;;1.27;0.40;;;6.30;99.90;;;;;;4855508;29;20062;-84
2022/04/07 21:36:40;;;;;;;3.63;0.60;;;6.60;99.90;;;;;;4871577;29;20129;-88
2022/04/07 21:39:32;;;;;;;;;;;;;;;;;;;;;
2022/04/07 21:46:22;;;;;;;3.38;0.60;;;6.60;99.90;;;;;;4881417;29;20067;-89
2022/04/07 21:49:44;;;;;;;7.65;1.13;;;6.90;99.90;;;;;;4881399;29;20048;-88
2022/04/07 21:53:25;;;;;;;14.73;1.08;;;7.00;99.90;;;;;;4803666;29;20501;-86
2022/04/07 21:56:28;;;;;;;9.30;1.15;;;6.90;99.90;;;;;;4800829;29;20059;-86